Time;durP1;ratioP1;P1;durP2;ratioP2;P2;SDS_P1;SDS_P2;PMS_P1;PMS_P2;Temp;Humidity;BMP_temperature;BMP_pressure;BME280_temperature;BME280_humidity;BME280_pressure;Samples;Min_cycle;Max_cycle;Signal;HPM_P1;HPM_P2
2023/03/27 00:00:56;;;;;;;6.57;1.23;;;2.30;99.90;;;;;;5091101;28;20498;-85
2023/03/27 00:03:24;;;;;;;7.50;1.17;;;2.30;99.90;;;;;;5110776;28;20410;-85
2023/03/27 00:05:58;;;;;;;8.40;1.65;;;2.20;99.90;;;;;;5092833;28;20036;-86
2023/03/27 00:08:25;;;;;;;6.25;1.27;;;2.20;99.90;;;;;;5110488;28;20525;-85
2023/03/27 00:10:51;;;;;;;3.88;1.20;;;2.30;99.90;;;;;;5104557;28;20043;-85
2023/03/27 00:13:17;;;;;;;4.35;0.90;;;2.20;99.90;;;;;;5104700;28;20040;-85
2023/03/27 00:15:45;;;;;;;4.22;0.90;;;2.30;99.90;;;;;;5108517;28;20121;-85
2023/03/27 00:18:12;;;;;;;3.25;1.10;;;2.20;99.90;;;;;;5088178;28;20552;-85
2023/03/27 00:20:38;;;;;;;5.25;0.93;;;2.20;99.90;;;;;;5087312;28;20085;-85
2023/03/27 00:23:05;;;;;;;4.90;0.90;;;2.20;99.90;;;;;;5109825;28;20054;-85
2023/03/27 00:25:31;;;;;;;5.35;0.98;;;2.10;99.90;;;;;;5092847;28;20036;-85
2023/03/27 00:27:57;;;;;;;6.43;1.10;;;2.10;99.90;;;;;;5105112;28;20042;-85
2023/03/27 00:30:25;;;;;;;5.05;1.05;;;2.10;99.90;;;;;;5088845;28;20131;-85
2023/03/27 00:32:53;;;;;;;2.38;0.63;;;2.10;99.90;;;;;;5111843;28;20039;-85
2023/03/27 00:35:18;;;;;;;4.53;0.60;;;2.00;99.90;;;;;;5126003;27;20566;-85
2023/03/27 00:37:44;;;;;;;4.32;0.82;;;2.00;99.90;;;;;;5105287;28;20114;-85
2023/03/27 00:40:19;;;;;;;4.93;0.85;;;2.00;99.90;;;;;;5113608;28;20118;-84
2023/03/27 00:42:50;;;;;;;6.78;0.93;;;2.00;99.90;;;;;;5113721;28;20085;-84
2023/03/27 00:45:18;;;;;;;7.22;0.80;;;2.00;99.90;;;;;;5095808;28;20036;-84
2023/03/27 00:47:46;;;;;;;6.45;0.90;;;2.10;99.90;;;;;;5088205;28;20123;-84
2023/03/27 00:50:17;;;;;;;8.25;1.30;;;2.10;99.90;;;;;;5109241;28;20592;-85
2023/03/27 00:52:46;;;;;;;8.77;1.40;;;2.10;99.90;;;;;;5108307;28;20044;-85
2023/03/27 00:55:16;;;;;;;4.00;1.00;;;2.10;99.90;;;;;;5095474;28;20040;-84
2023/03/27 00:57:44;;;;;;;5.20;1.10;;;2.10;99.90;;;;;;5092662;28;20113;-84
2023/03/27 01:00:13;;;;;;;4.75;0.90;;;2.00;99.90;;;;;;5106687;28;20042;-84
2023/03/27 01:02:41;;;;;;;6.95;0.98;;;2.00;99.90;;;;;;5089721;28;20051;-84
2023/03/27 01:05:08;;;;;;;7.70;0.73;;;2.10;99.90;;;;;;5112589;28;20510;-83
2023/03/27 01:07:35;;;;;;;6.13;1.00;;;2.10;99.90;;;;;;5096189;28;20571;-84
2023/03/27 01:10:05;;;;;;;4.43;0.93;;;2.10;99.90;;;;;;5096229;28;20036;-83
2023/03/27 01:12:55;;;;;;;8.23;1.10;;;2.20;99.90;;;;;;5109987;28;20425;-85
2023/03/27 01:15:38;;;;;;;4.43;1.00;;;2.10;99.90;;;;;;5113006;28;20043;-84
2023/03/27 01:18:25;;;;;;;8.90;1.10;;;2.10;99.90;;;;;;5105987;28;20047;-84
2023/03/27 01:21:11;;;;;;;8.40;0.95;;;2.10;99.90;;;;;;5105165;28;20040;-84
2023/03/27 01:23:52;;;;;;;6.65;1.20;;;2.10;99.90;;;;;;5127944;27;20043;-83
2023/03/27 01:26:39;;;;;;;7.97;1.15;;;2.10;99.90;;;;;;5108409;28;20077;-84
2023/03/27 01:29:24;;;;;;;5.22;1.13;;;2.10;99.90;;;;;;5107268;28;20055;-84
2023/03/27 01:32:24;;;;;;;5.25;1.00;;;2.10;99.90;;;;;;5090175;28;20136;-85
2023/03/27 01:35:14;;;;;;;5.43;0.90;;;2.10;99.90;;;;;;5088205;28;20118;-85
2023/03/27 01:38:05;;;;;;;7.53;1.35;;;2.10;99.90;;;;;;5093730;28;20039;-84
2023/03/27 01:40:54;;;;;;;5.38;1.25;;;2.10;99.90;;;;;;5112347;28;20116;-84
2023/03/27 01:43:41;;;;;;;4.95;1.20;;;2.10;99.90;;;;;;5090258;28;20486;-84
2023/03/27 01:46:11;;;;;;;4.65;0.95;;;2.10;99.90;;;;;;5104820;28;20073;-85
2023/03/27 01:48:44;;;;;;;3.42;1.17;;;2.10;99.90;;;;;;5092803;28;20145;-85
2023/03/27 01:51:16;;;;;;;9.23;1.10;;;2.10;99.90;;;;;;5086853;28;20055;-85
2023/03/27 01:53:59;;;;;;;5.93;1.10;;;2.10;99.90;;;;;;5093059;28;20039;-85
2023/03/27 01:56:32;;;;;;;5.28;1.30;;;2.10;99.90;;;;;;5108313;28;20067;-84
2023/03/27 01:59:17;;;;;;;6.93;1.33;;;2.10;99.90;;;;;;5086491;28;20032;-84
2023/03/27 02:01:50;;;;;;;6.78;1.52;;;2.10;99.90;;;;;;5094170;28;20031;-85
2023/03/27 02:04:20;;;;;;;6.25;0.95;;;2.10;99.90;;;;;;5090157;28;20074;-85
2023/03/27 02:06:56;;;;;;;5.00;0.90;;;2.00;99.90;;;;;;5112082;28;20043;-85
2023/03/27 02:09:28;;;;;;;4.50;1.30;;;2.10;99.90;;;;;;5095562;28;20036;-85
2023/03/27 02:12:01;;;;;;;4.55;0.85;;;2.00;99.90;;;;;;5137220;27;20036;-85
2023/03/27 02:14:35;;;;;;;6.45;1.00;;;1.90;99.90;;;;;;5116971;27;20035;-84
2023/03/27 02:17:08;;;;;;;5.18;1.00;;;1.90;99.90;;;;;;5104967;28;20031;-84
2023/03/27 02:19:41;;;;;;;3.90;1.25;;;1.90;99.90;;;;;;5086911;28;20407;-84
2023/03/27 02:22:06;;;;;;;3.03;0.95;;;1.90;99.90;;;;;;5108123;28;20418;-86
2023/03/27 02:24:32;;;;;;;3.63;0.93;;;1.80;99.90;;;;;;5089340;28;20043;-86
2023/03/27 02:27:22;;;;;;;4.53;1.10;;;1.90;99.90;;;;;;5109808;28;20084;-84
2023/03/27 02:30:09;;;;;;;4.68;1.10;;;2.00;99.90;;;;;;5095251;28;20054;-85
2023/03/27 02:32:47;;;;;;;7.05;1.20;;;2.10;99.90;;;;;;5108749;28;20051;-85
2023/03/27 02:35:29;;;;;;;9.05;1.98;;;2.20;99.90;;;;;;5143599;27;20040;-84
2023/03/27 02:38:38;;;;;;;7.60;1.80;;;2.20;99.90;;;;;;5111002;28;20028;-84
2023/03/27 02:41:17;;;;;;;9.52;1.40;;;2.20;99.90;;;;;;5091573;28;20180;-86
2023/03/27 02:44:07;;;;;;;6.20;1.60;;;2.20;99.90;;;;;;5093140;28;20036;-84
2023/03/27 02:46:42;;;;;;;5.95;1.20;;;2.20;99.90;;;;;;5083912;28;20082;-84
2023/03/27 02:49:25;;;;;;;4.38;1.30;;;2.30;99.90;;;;;;5109908;28;20047;-84
2023/03/27 02:51:57;;;;;;;5.60;1.30;;;2.20;99.90;;;;;;5109497;28;20038;-84
2023/03/27 02:54:31;;;;;;;9.85;1.25;;;2.20;99.90;;;;;;5106468;28;20071;-84
2023/03/27 02:57:02;;;;;;;7.03;1.70;;;2.20;99.90;;;;;;5083754;28;20031;-85
2023/03/27 02:59:34;;;;;;;8.02;1.45;;;2.10;99.90;;;;;;5107784;28;20050;-84
2023/03/27 03:02:13;;;;;;;6.60;1.20;;;2.10;99.90;;;;;;5106320;28;20042;-84
2023/03/27 03:04:46;;;;;;;8.80;1.30;;;2.00;99.90;;;;;;5085705;28;20031;-85
2023/03/27 03:07:13;;;;;;;4.70;1.17;;;2.00;99.90;;;;;;5105558;28;20039;-84
2023/03/27 03:09:40;;;;;;;8.00;1.80;;;2.00;99.90;;;;;;5087635;28;20047;-85
2023/03/27 03:12:06;;;;;;;7.22;1.48;;;2.00;99.90;;;;;;5106499;28;20387;-84
2023/03/27 03:14:35;;;;;;;7.50;1.20;;;3.00;99.90;;;;;;5084625;28;20448;-85
2023/03/27 03:17:01;;;;;;;7.63;1.60;;;1.90;99.90;;;;;;5107602;28;20036;-85
2023/03/27 03:19:27;;;;;;;9.48;1.40;;;1.90;99.90;;;;;;5141285;27;20406;-85
2023/03/27 03:21:52;;;;;;;8.70;1.50;;;1.90;99.90;;;;;;5145016;27;20036;-85
2023/03/27 03:24:20;;;;;;;8.07;1.35;;;1.80;99.90;;;;;;5089127;28;20036;-85
2023/03/27 03:26:49;;;;;;;8.20;1.10;;;1.80;99.90;;;;;;5103459;28;20124;-85
2023/03/27 03:29:15;;;;;;;6.53;1.47;;;1.80;99.90;;;;;;5087033;28;20039;-85
2023/03/27 03:31:44;;;;;;;11.65;1.83;;;1.80;99.90;;;;;;5103684;28;20574;-83
2023/03/27 03:34:15;;;;;;;8.27;1.70;;;1.70;99.90;;;;;;5088624;28;20029;-84
2023/03/27 03:36:43;;;;;;;7.53;1.67;;;1.70;99.90;;;;;;5087295;28;20032;-84
2023/03/27 03:39:11;;;;;;;5.70;1.20;;;1.70;99.90;;;;;;5107940;28;20043;-84
2023/03/27 03:41:36;;;;;;;7.63;1.30;;;1.70;99.90;;;;;;5091379;28;20047;-85
2023/03/27 03:44:02;;;;;;;8.67;1.60;;;1.70;99.90;;;;;;5093775;28;20035;-85
2023/03/27 03:46:27;;;;;;;6.73;1.47;;;1.60;99.90;;;;;;5102612;28;20118;-85
2023/03/27 03:48:53;;;;;;;4.73;1.60;;;1.60;99.90;;;;;;5090056;28;20046;-85
2023/03/27 03:51:19;;;;;;;6.80;1.37;;;1.60;99.90;;;;;;5088934;28;20055;-85
2023/03/27 03:53:44;;;;;;;10.57;1.57;;;1.60;99.90;;;;;;5085507;28;20062;-84
2023/03/27 03:56:10;;;;;;;5.23;1.30;;;1.60;99.90;;;;;;5106024;28;20411;-84
2023/03/27 03:58:35;;;;;;;7.47;1.50;;;1.60;99.90;;;;;;5090694;28;20036;-84
2023/03/27 04:01:01;;;;;;;11.53;2.03;;;1.60;99.90;;;;;;5136779;27;20410;-85
2023/03/27 04:03:30;;;;;;;5.47;1.60;;;1.60;99.90;;;;;;5106517;28;20070;-84
2023/03/27 04:05:59;;;;;;;5.13;1.40;;;1.60;99.90;;;;;;5103882;28;20062;-84
2023/03/27 04:08:25;;;;;;;4.50;1.50;;;1.80;99.90;;;;;;5097838;28;20051;-87
2023/03/27 04:10:51;;;;;;;8.40;1.90;;;1.90;99.90;;;;;;5090293;28;20071;-86
2023/03/27 04:13:17;;;;;;;7.87;1.63;;;2.10;99.90;;;;;;5097253;28;20082;-85
2023/03/27 04:15:42;;;;;;;8.30;1.50;;;2.20;99.90;;;;;;5092982;28;20036;-84
2023/03/27 04:18:08;;;;;;;8.93;1.80;;;2.20;99.90;;;;;;5113948;28;20414;-84
2023/03/27 04:20:33;;;;;;;9.20;1.90;;;2.30;99.90;;;;;;5148143;27;20035;-84
2023/03/27 04:23:02;;;;;;;7.63;2.13;;;2.30;99.90;;;;;;5097208;28;20112;-83
2023/03/27 04:25:28;;;;;;;9.43;1.73;;;2.30;99.90;;;;;;5096241;28;20065;-85
2023/03/27 04:27:55;;;;;;;6.83;1.60;;;2.30;99.90;;;;;;5110302;28;20039;-85
2023/03/27 04:30:24;;;;;;;9.73;2.20;;;2.20;99.90;;;;;;5097359;28;20486;-84
2023/03/27 04:32:51;;;;;;;7.63;2.20;;;2.20;99.90;;;;;;5106741;28;20072;-84
2023/03/27 04:35:18;;;;;;;5.30;1.43;;;2.20;99.90;;;;;;5091119;28;20043;-84
2023/03/27 04:37:45;;;;;;;9.67;1.43;;;2.20;99.90;;;;;;5107806;28;20036;-84
2023/03/27 04:40:13;;;;;;;10.68;1.98;;;2.10;99.90;;;;;;5109950;28;20051;-84
2023/03/27 04:42:42;;;;;;;5.80;1.42;;;2.40;99.90;;;;;;5094677;28;20051;-84
2023/03/27 04:45:21;;;;;;;5.30;1.20;;;2.10;99.90;;;;;;5105390;28;20051;-84
2023/03/27 04:47:47;;;;;;;6.03;1.77;;;2.00;99.90;;;;;;5107966;28;20436;-84
2023/03/27 04:50:14;;;;;;;10.30;1.52;;;2.00;99.90;;;;;;5107018;28;20054;-84
2023/03/27 04:52:41;;;;;;;6.55;1.58;;;2.00;99.90;;;;;;5093856;28;20035;-84
2023/03/27 04:55:07;;;;;;;11.23;2.00;;;2.00;99.90;;;;;;5091837;28;20044;-83
2023/03/27 04:57:33;;;;;;;8.00;1.40;;;1.90;99.90;;;;;;5089124;28;20043;-84
2023/03/27 05:00:00;;;;;;;6.13;1.60;;;1.90;99.90;;;;;;5096524;28;20043;-86
2023/03/27 05:02:26;;;;;;;4.23;0.93;;;2.00;99.90;;;;;;5113635;28;20036;-85
2023/03/27 05:04:57;;;;;;;3.55;0.90;;;2.30;99.90;;;;;;5105013;28;20027;-85
2023/03/27 05:07:24;;;;;;;4.37;0.80;;;2.40;99.90;;;;;;5109284;28;20039;-86
2023/03/27 05:09:50;;;;;;;4.45;0.85;;;2.90;99.90;;;;;;5108507;28;20579;-84
2023/03/27 05:12:15;;;;;;;3.38;0.90;;;2.30;99.90;;;;;;5088259;28;20075;-84
2023/03/27 05:14:41;;;;;;;3.25;0.70;;;2.30;99.90;;;;;;5089199;28;20043;-85
2023/03/27 05:17:06;;;;;;;2.90;0.60;;;2.40;99.90;;;;;;5107221;28;20504;-85
2023/03/27 05:19:32;;;;;;;2.45;0.65;;;2.30;99.90;;;;;;5087467;28;20039;-84
2023/03/27 05:21:57;;;;;;;4.47;0.80;;;2.30;99.90;;;;;;5108299;28;20036;-84
2023/03/27 05:24:23;;;;;;;1.95;0.63;;;2.20;99.90;;;;;;5108357;28;20032;-85
2023/03/27 05:26:48;;;;;;;1.48;0.50;;;2.20;99.90;;;;;;5110537;28;20076;-85
2023/03/27 05:29:15;;;;;;;6.87;0.67;;;2.30;99.90;;;;;;5141791;27;20126;-85
2023/03/27 05:31:41;;;;;;;2.72;0.55;;;2.30;99.90;;;;;;5104631;28;20036;-86
2023/03/27 05:34:06;;;;;;;5.67;0.77;;;2.30;99.90;;;;;;5138420;27;20036;-85
2023/03/27 05:36:34;;;;;;;4.60;0.70;;;2.40;99.90;;;;;;5104623;28;20050;-85
2023/03/27 05:39:00;;;;;;;4.53;1.55;;;2.40;99.90;;;;;;5089036;28;20051;-84
2023/03/27 05:41:26;;;;;;;5.85;1.00;;;2.50;99.90;;;;;;5111983;28;20040;-85
2023/03/27 05:43:52;;;;;;;4.35;0.93;;;2.50;99.90;;;;;;5112687;28;20037;-84
2023/03/27 05:46:18;;;;;;;3.38;0.95;;;2.50;99.90;;;;;;5106681;28;20039;-85
2023/03/27 05:48:44;;;;;;;2.83;0.80;;;2.50;99.90;;;;;;5090358;28;20074;-86
2023/03/27 05:51:09;;;;;;;5.18;0.80;;;2.50;99.90;;;;;;5106445;28;20039;-84
2023/03/27 05:53:38;;;;;;;4.28;0.90;;;2.50;99.90;;;;;;5091475;28;20036;-84
2023/03/27 05:56:07;;;;;;;4.05;0.82;;;2.60;99.90;;;;;;5105796;28;20050;-84
2023/03/27 05:58:33;;;;;;;10.50;1.10;;;2.60;99.90;;;;;;5089346;28;20032;-85
2023/03/27 06:00:59;;;;;;;7.55;0.98;;;2.60;99.90;;;;;;5092797;28;20032;-84
2023/03/27 06:03:28;;;;;;;7.03;1.00;;;2.60;99.90;;;;;;5108177;28;20077;-84
2023/03/27 06:06:00;;;;;;;5.15;1.45;;;2.60;99.90;;;;;;5103469;28;20103;-84
2023/03/27 06:08:27;;;;;;;6.32;1.20;;;2.60;99.90;;;;;;5108529;28;20060;-83
2023/03/27 06:10:53;;;;;;;2.95;0.50;;;2.50;99.90;;;;;;5106925;28;20419;-85
2023/03/27 06:13:20;;;;;;;3.42;1.00;;;2.50;99.90;;;;;;5111949;28;20172;-83
2023/03/27 06:15:45;;;;;;;3.05;0.77;;;2.60;99.90;;;;;;5111726;28;20057;-83
2023/03/27 06:18:11;;;;;;;2.55;0.60;;;2.60;99.90;;;;;;5106817;28;20039;-83
2023/03/27 06:20:37;;;;;;;4.25;0.82;;;2.60;99.90;;;;;;5090869;28;20039;-84
2023/03/27 06:23:05;;;;;;;3.95;0.82;;;2.80;99.90;;;;;;5111623;28;20376;-84
2023/03/27 06:25:33;;;;;;;2.45;0.60;;;2.80;99.90;;;;;;5108297;28;20062;-84
2023/03/27 06:27:59;;;;;;;4.25;0.70;;;2.90;99.90;;;;;;5104253;28;20047;-84
2023/03/27 06:30:26;;;;;;;4.25;1.02;;;3.00;99.90;;;;;;5088856;28;20075;-84
2023/03/27 06:32:57;;;;;;;3.40;0.77;;;3.10;99.90;;;;;;5087249;28;20035;-86
2023/03/27 06:35:24;;;;;;;3.35;0.88;;;3.20;99.90;;;;;;5104542;28;20119;-85
2023/03/27 06:37:50;;;;;;;8.43;1.27;;;3.40;99.90;;;;;;5110428;28;20041;-84
2023/03/27 06:40:21;;;;;;;4.28;0.95;;;3.40;99.90;;;;;;5108373;28;20032;-85
2023/03/27 06:42:51;;;;;;;6.13;1.35;;;3.50;99.90;;;;;;5104237;28;20047;-83
2023/03/27 06:45:16;;;;;;;4.75;0.80;;;3.50;99.90;;;;;;5088699;28;20042;-83
2023/03/27 06:47:50;;;;;;;6.10;0.90;;;3.60;99.90;;;;;;5142275;27;20114;-84
2023/03/27 06:50:15;;;;;;;8.38;1.20;;;3.60;99.90;;;;;;5109643;28;20062;-83
2023/03/27 06:52:41;;;;;;;5.75;1.00;;;3.60;99.90;;;;;;5108175;28;20067;-83
2023/03/27 06:55:08;;;;;;;6.60;0.98;;;3.60;99.90;;;;;;5110725;28;20044;-85
2023/03/27 06:57:34;;;;;;;7.53;1.10;;;3.60;99.90;;;;;;5104203;28;20104;-83
2023/03/27 07:00:00;;;;;;;3.13;0.90;;;3.70;99.90;;;;;;5086745;28;20032;-84
2023/03/27 07:02:26;;;;;;;6.82;1.20;;;3.60;99.90;;;;;;5103431;28;20036;-83
2023/03/27 07:04:51;;;;;;;5.28;1.00;;;3.60;99.90;;;;;;5105755;28;20080;-83
2023/03/27 07:07:17;;;;;;;4.40;1.10;;;3.60;99.90;;;;;;5107318;28;20120;-83
2023/03/27 07:09:42;;;;;;;5.75;1.05;;;3.70;99.90;;;;;;5088349;28;20040;-84
2023/03/27 07:12:08;;;;;;;8.00;1.33;;;3.80;99.90;;;;;;5091224;28;20043;-85
2023/03/27 07:14:34;;;;;;;5.38;1.25;;;3.90;99.90;;;;;;5105633;28;20047;-85
2023/03/27 07:17:00;;;;;;;2.85;0.90;;;3.90;99.90;;;;;;5101315;28;20047;-83
2023/03/27 07:19:26;;;;;;;8.57;1.08;;;3.90;99.90;;;;;;5102499;28;20097;-83
2023/03/27 07:21:52;;;;;;;7.32;1.35;;;4.10;99.90;;;;;;5107079;28;20028;-84
2023/03/27 07:24:18;;;;;;;7.65;1.20;;;4.20;99.90;;;;;;5105235;28;20036;-84
2023/03/27 07:26:43;;;;;;;7.82;1.00;;;4.40;99.90;;;;;;5102207;28;20112;-84
2023/03/27 07:29:09;;;;;;;9.45;1.48;;;4.60;99.90;;;;;;5106255;28;20039;-85
2023/03/27 07:31:36;;;;;;;6.85;1.40;;;4.80;99.90;;;;;;5104500;28;20061;-84
2023/03/27 07:34:01;;;;;;;6.72;1.30;;;4.90;99.90;;;;;;5105554;28;20027;-84
2023/03/27 07:36:27;;;;;;;6.20;1.33;;;4.90;99.90;;;;;;5109569;28;20526;-85
2023/03/27 07:38:53;;;;;;;5.55;1.05;;;4.80;99.90;;;;;;5106978;28;20564;-85
2023/03/27 07:41:19;;;;;;;8.35;1.77;;;5.00;99.90;;;;;;5105477;28;20066;-85
2023/03/27 07:43:45;;;;;;;5.18;1.42;;;4.90;99.90;;;;;;5085958;28;20031;-85
2023/03/27 07:46:11;;;;;;;9.20;2.22;;;4.10;99.90;;;;;;5107560;28;20123;-85
2023/03/27 07:48:37;;;;;;;5.93;1.98;;;3.60;99.90;;;;;;5109959;28;20180;-83
2023/03/27 07:51:04;;;;;;;2.22;0.75;;;3.20;99.90;;;;;;5104869;28;20067;-83
2023/03/27 07:53:30;;;;;;;4.20;1.08;;;3.00;99.90;;;;;;5086753;28;20044;-83
2023/03/27 07:55:57;;;;;;;8.50;1.10;;;2.90;99.90;;;;;;5109629;28;20032;-83
2023/03/27 07:58:23;;;;;;;4.22;1.00;;;2.80;99.90;;;;;;5107097;28;20039;-84
2023/03/27 08:00:51;;;;;;;3.10;0.80;;;2.80;99.90;;;;;;5093360;28;20043;-84
2023/03/27 08:03:18;;;;;;;4.55;1.08;;;2.80;99.90;;;;;;5106330;28;20110;-83
2023/03/27 08:05:50;;;;;;;5.07;1.15;;;2.70;99.90;;;;;;5103394;28;20044;-83
2023/03/27 08:08:16;;;;;;;6.32;1.45;;;2.90;99.90;;;;;;5104024;28;20052;-83
2023/03/27 08:10:41;;;;;;;5.70;1.13;;;3.00;99.90;;;;;;5087628;28;20040;-84
2023/03/27 08:13:07;;;;;;;4.30;1.10;;;3.10;99.90;;;;;;5102957;28;20043;-82
2023/03/27 08:15:32;;;;;;;5.13;0.93;;;3.20;99.90;;;;;;5094497;28;20097;-82
2023/03/27 08:17:58;;;;;;;4.57;0.98;;;3.40;99.90;;;;;;5072003;28;20032;-83
2023/03/27 08:20:24;;;;;;;5.45;1.00;;;3.50;99.90;;;;;;5089612;28;20036;-83
2023/03/27 08:22:51;;;;;;;3.55;1.10;;;3.70;99.90;;;;;;5089408;28;20040;-83
2023/03/27 08:25:17;;;;;;;4.80;0.88;;;3.90;99.90;;;;;;5124161;27;20407;-83
2023/03/27 08:27:45;;;;;;;4.45;1.00;;;5.10;99.90;;;;;;5089745;28;20043;-83
2023/03/27 08:30:13;;;;;;;3.63;0.80;;;4.20;99.90;;;;;;5090446;28;20522;-82
2023/03/27 08:32:40;;;;;;;7.18;1.10;;;4.40;99.90;;;;;;5134215;27;20035;-83
2023/03/27 08:35:06;;;;;;;5.30;1.02;;;4.60;99.90;;;;;;5106494;28;20576;-83
2023/03/27 08:37:33;;;;;;;3.67;0.90;;;4.70;99.90;;;;;;5106032;28;20407;-83
2023/03/27 08:40:00;;;;;;;6.13;1.83;;;4.80;99.90;;;;;;5102592;28;20039;-83
2023/03/27 08:42:39;;;;;;;5.00;1.08;;;5.10;99.90;;;;;;5103384;28;20069;-84
2023/03/27 08:45:21;;;;;;;5.88;1.42;;;5.20;99.90;;;;;;5100311;28;20040;-84
2023/03/27 08:47:55;;;;;;;3.20;1.05;;;5.30;99.90;;;;;;5107430;28;20047;-83
2023/03/27 08:50:28;;;;;;;;;;;5.20;99.90;;;;;;5105020;28;20072;-84
2023/03/27 08:52:54;;;;;;;3.40;1.25;;;5.20;99.90;;;;;;5110858;28;19994;-83
2023/03/27 08:55:33;;;;;;;7.28;1.27;;;5.40;99.90;;;;;;5108658;28;20123;-83
2023/03/27 08:57:59;;;;;;;11.60;1.23;;;5.60;99.90;;;;;;5101909;28;20112;-83
2023/03/27 09:00:30;;;;;;;4.95;1.05;;;5.80;99.90;;;;;;5096135;28;20045;-84
2023/03/27 09:03:06;;;;;;;6.57;1.05;;;6.00;99.90;;;;;;5105313;28;20038;-84
2023/03/27 09:05:43;;;;;;;3.97;0.77;;;6.40;99.90;;;;;;5110099;28;20043;-83
2023/03/27 09:08:39;;;;;;;5.45;0.90;;;6.00;99.90;;;;;;5102194;28;20119;-84
2023/03/27 09:11:10;;;;;;;2.67;1.00;;;5.70;99.90;;;;;;5104449;28;20049;-83
2023/03/27 09:13:45;;;;;;;5.45;0.60;;;5.80;99.90;;;;;;5143004;27;20047;-84
2023/03/27 09:16:24;;;;;;;3.55;1.05;;;5.80;99.90;;;;;;5108140;28;20040;-83
2023/03/27 09:19:16;;;;;;;3.95;1.10;;;5.60;99.90;;;;;;5112825;28;20158;-83
2023/03/27 09:21:50;;;;;;;3.33;0.90;;;5.50;99.90;;;;;;5088569;28;20033;-83
2023/03/27 09:24:28;;;;;;;6.43;1.10;;;5.60;99.90;;;;;;5089650;28;20043;-83
2023/03/27 09:26:55;;;;;;;5.93;0.90;;;5.90;99.90;;;;;;5107715;28;20096;-83
2023/03/27 09:29:24;;;;;;;3.72;1.15;;;6.00;99.90;;;;;;5084323;28;20040;-83
2023/03/27 09:31:53;;;;;;;3.90;0.68;;;6.30;99.90;;;;;;5110434;28;20031;-82
2023/03/27 09:34:31;;;;;;;4.10;0.70;;;6.40;99.90;;;;;;5104819;28;20032;-83
2023/03/27 09:36:58;;;;;;;4.90;0.80;;;6.60;99.90;;;;;;5091708;28;20143;-83
2023/03/27 09:39:32;;;;;;;2.88;1.00;;;6.50;99.90;;;;;;5096497;28;20042;-82
2023/03/27 09:42:10;;;;;;;2.83;0.60;;;6.30;99.90;;;;;;5104646;28;20127;-82
2023/03/27 09:44:41;;;;;;;2.47;0.40;;;6.00;99.90;;;;;;5108527;28;20388;-83
2023/03/27 09:47:18;;;;;;;6.22;0.75;;;6.10;99.90;;;;;;5111484;27;20413;-82
2023/03/27 09:50:24;;;;;;;5.70;0.73;;;6.40;99.90;;;;;;5109201;27;20047;-84
2023/03/27 09:52:51;;;;;;;4.00;0.85;;;6.60;99.90;;;;;;5138607;27;20076;-83
2023/03/27 09:55:58;;;;;;;12.20;3.25;;;6.90;99.90;;;;;;5104054;27;20040;-83
2023/03/27 09:58:29;;;;;;;9.00;0.98;;;7.30;99.90;;;;;;5117761;27;20036;-82
2023/03/27 10:01:19;;;;;;;6.63;0.70;;;7.50;99.90;;;;;;5085947;28;20047;-83
2023/03/27 10:03:48;;;;;;;6.97;1.23;;;6.90;99.90;;;;;;5105224;27;20392;-83
2023/03/27 10:06:28;;;;;;;2.63;0.70;;;6.40;99.90;;;;;;5105227;28;20047;-84
2023/03/27 10:08:55;;;;;;;6.28;1.25;;;6.20;99.90;;;;;;5108776;27;20410;-85
2023/03/27 10:11:26;;;;;;;3.40;0.47;;;6.60;99.90;;;;;;5103254;27;20096;-84
2023/03/27 10:13:53;;;;;;;5.80;0.75;;;6.80;99.90;;;;;;5114249;27;20098;-84
2023/03/27 10:16:21;;;;;;;2.75;0.65;;;7.10;99.90;;;;;;5105784;27;20084;-84
2023/03/27 10:18:53;;;;;;;5.00;0.90;;;7.10;99.90;;;;;;5094348;28;20042;-85
2023/03/27 10:21:43;;;;;;;2.38;0.60;;;6.90;99.90;;;;;;5107068;27;20031;-85
2023/03/27 10:24:32;;;;;;;4.22;0.90;;;6.60;99.90;;;;;;5141980;27;20042;-83
2023/03/27 10:27:11;;;;;;;1.67;0.50;;;6.60;99.90;;;;;;5085051;28;20036;-83
2023/03/27 10:29:36;;;;;;;4.40;0.55;;;6.90;99.90;;;;;;5107722;28;20506;-84
2023/03/27 10:32:04;;;;;;;4.13;0.90;;;7.10;99.90;;;;;;5106251;28;20051;-83
2023/03/27 10:34:49;;;;;;;4.13;0.93;;;7.20;99.90;;;;;;5101771;28;20093;-84
2023/03/27 10:37:29;;;;;;;2.47;0.52;;;7.20;99.90;;;;;;5094028;28;20036;-84
2023/03/27 10:39:58;;;;;;;4.55;0.95;;;7.40;99.90;;;;;;5082930;28;20035;-84
2023/03/27 10:42:26;;;;;;;5.78;0.93;;;7.60;99.90;;;;;;5106061;28;20139;-84
2023/03/27 10:44:55;;;;;;;3.13;1.15;;;7.70;99.90;;;;;;5085812;28;20063;-83
2023/03/27 10:47:28;;;;;;;3.97;0.90;;;8.00;99.90;;;;;;5092527;28;20040;-83
2023/03/27 10:50:17;;;;;;;10.35;1.77;;;7.90;99.90;;;;;;5090523;28;20039;-84
2023/03/27 10:53:01;;;;;;;5.40;0.57;;;8.00;99.90;;;;;;5091121;28;20040;-83
2023/03/27 10:56:12;;;;;;;5.05;0.80;;;8.00;99.90;;;;;;5105360;28;20069;-83
2023/03/27 10:58:52;;;;;;;3.55;0.73;;;7.90;99.90;;;;;;5055225;28;20036;-83
2023/03/27 11:01:26;;;;;;;3.72;0.98;;;8.10;99.90;;;;;;5104813;28;20840;-83
2023/03/27 11:04:14;;;;;;;4.20;0.90;;;8.20;99.90;;;;;;5109546;28;20047;-84
2023/03/27 11:06:42;;;;;;;3.17;0.65;;;8.30;99.90;;;;;;5088745;28;20067;-85
2023/03/27 11:09:28;;;;;;;3.42;0.85;;;8.20;99.90;;;;;;5081745;28;20055;-84
2023/03/27 11:12:06;;;;;;;3.38;0.75;;;8.10;99.90;;;;;;5105757;28;20035;-82
2023/03/27 11:14:52;;;;;;;4.72;0.85;;;8.20;99.90;;;;;;5109204;28;20040;-83
2023/03/27 11:17:26;;;;;;;3.83;1.00;;;8.20;99.90;;;;;;5102279;28;20028;-84
2023/03/27 11:19:59;;;;;;;4.00;0.70;;;8.10;99.90;;;;;;5109983;28;20513;-85
2023/03/27 11:22:39;;;;;;;4.85;0.73;;;8.10;99.90;;;;;;5103217;28;20422;-83
2023/03/27 11:25:28;;;;;;;4.88;0.75;;;8.20;99.90;;;;;;5096587;28;20138;-84
2023/03/27 11:28:09;;;;;;;6.72;0.90;;;7.50;99.90;;;;;;5106775;28;20095;-84
2023/03/27 11:30:45;;;;;;;5.20;1.50;;;6.10;99.90;;;;;;5102115;28;20105;-83
2023/03/27 11:33:39;;;;;;;3.35;0.60;;;5.40;99.90;;;;;;5107000;28;20046;-83
2023/03/27 11:36:20;;;;;;;2.45;0.60;;;5.20;99.90;;;;;;5090535;28;20035;-84
2023/03/27 11:38:53;;;;;;;2.28;0.60;;;4.90;99.90;;;;;;5111675;28;20130;-84
2023/03/27 11:41:19;;;;;;;4.07;0.80;;;4.80;99.90;;;;;;5106861;28;20129;-83
2023/03/27 11:43:45;;;;;;;4.82;0.80;;;5.00;99.90;;;;;;5108659;28;20043;-83
2023/03/27 11:46:42;;;;;;;4.80;0.70;;;5.40;99.90;;;;;;5087606;28;20407;-84
2023/03/27 11:49:23;;;;;;;3.42;0.90;;;6.00;99.90;;;;;;5114121;28;20044;-84
2023/03/27 11:52:10;;;;;;;4.25;0.80;;;6.50;99.90;;;;;;5105102;28;20040;-84
2023/03/27 11:55:05;;;;;;;4.28;0.80;;;6.70;99.90;;;;;;5101121;28;20507;-85
2023/03/27 11:57:32;;;;;;;;;;;7.10;99.90;;;;;;5107397;28;20114;-84
2023/03/27 12:00:31;;;;;;;4.22;0.80;;;7.60;99.90;;;;;;5087493;28;19915;-84
2023/03/27 12:03:13;;;;;;;6.85;1.08;;;7.80;99.90;;;;;;5083665;28;20504;-82
2023/03/27 12:05:57;;;;;;;3.35;0.85;;;7.40;99.90;;;;;;5103836;28;20105;-84
2023/03/27 12:08:52;;;;;;;3.90;0.88;;;7.40;99.90;;;;;;5102362;28;20499;-83
2023/03/27 12:11:23;;;;;;;3.03;0.90;;;7.60;99.90;;;;;;5101254;28;20039;-85
2023/03/27 12:14:01;;;;;;;3.22;0.70;;;7.90;99.90;;;;;;5091558;28;20086;-84
2023/03/27 12:16:55;;;;;;;4.15;0.75;;;7.90;99.90;;;;;;5088869;28;20031;-85
2023/03/27 12:19:49;;;;;;;7.55;0.90;;;8.00;99.90;;;;;;5085619;28;20196;-84
2023/03/27 12:22:23;;;;;;;2.75;0.70;;;9.00;99.90;;;;;;5103888;28;20165;-84
2023/03/27 12:25:27;;;;;;;3.65;1.00;;;8.20;99.90;;;;;;5101589;28;20511;-83
2023/03/27 12:28:15;;;;;;;8.80;1.35;;;8.30;99.90;;;;;;5108414;28;20406;-84
2023/03/27 12:31:08;;;;;;;5.47;1.10;;;8.50;99.90;;;;;;5088285;28;20495;-83
2023/03/27 12:33:41;;;;;;;4.30;1.40;;;8.20;99.90;;;;;;5092874;28;20241;-85
2023/03/27 12:36:12;;;;;;;3.78;0.90;;;8.40;99.90;;;;;;5089515;28;20453;-84
2023/03/27 12:38:42;;;;;;;6.43;1.52;;;8.40;99.90;;;;;;5110621;28;20035;-85
2023/03/27 12:41:09;;;;;;;7.93;1.40;;;8.40;99.90;;;;;;5103120;28;20036;-85
2023/03/27 12:43:40;;;;;;;6.78;1.20;;;8.20;99.90;;;;;;5110749;28;20040;-82
2023/03/27 12:46:22;;;;;;;4.57;0.93;;;7.10;99.90;;;;;;5088010;28;20040;-85
2023/03/27 12:48:55;;;;;;;6.35;1.13;;;6.50;99.90;;;;;;5111910;28;20040;-85
2023/03/27 12:51:46;;;;;;;5.40;0.80;;;6.50;99.90;;;;;;5088218;28;20520;-85
2023/03/27 12:54:25;;;;;;;3.25;0.85;;;6.80;99.90;;;;;;5090839;28;20039;-84
2023/03/27 12:57:10;;;;;;;7.72;1.40;;;7.30;99.90;;;;;;5107929;28;20042;-84
2023/03/27 12:59:39;;;;;;;6.13;1.30;;;7.50;99.90;;;;;;5111778;28;20050;-84
2023/03/27 13:02:05;;;;;;;8.18;1.10;;;7.70;99.90;;;;;;5094302;28;20043;-83
2023/03/27 13:04:47;;;;;;;8.27;1.30;;;7.90;99.90;;;;;;5097409;28;20085;-83
2023/03/27 13:07:32;;;;;;;6.45;1.23;;;8.00;99.90;;;;;;5109536;28;20118;-84
2023/03/27 13:10:16;;;;;;;;;;;7.90;99.90;;;;;;5106872;28;20036;-85
2023/03/27 13:13:08;;;;;;;6.10;1.30;;;8.00;99.90;;;;;;5096029;28;20298;-84
2023/03/27 13:15:42;;;;;;;4.72;1.05;;;8.30;99.90;;;;;;5103305;28;20055;-83
2023/03/27 13:18:45;;;;;;;5.53;0.90;;;8.40;99.90;;;;;;5092630;28;20043;-84
2023/03/27 13:21:20;;;;;;;4.28;0.95;;;8.50;99.90;;;;;;5108832;28;20146;-84
2023/03/27 13:23:57;;;;;;;3.97;0.80;;;8.80;99.90;;;;;;5089817;28;20039;-83
2023/03/27 13:26:28;;;;;;;7.30;1.15;;;8.60;99.90;;;;;;5106668;28;20126;-82